createdAt,value
2024-01-18T00:01:10.418Z,10.90
2024-01-18T00:03:38.192Z,11.20
2024-01-18T00:06:05.968Z,10.50
2024-01-18T00:08:33.738Z,13.10
2024-01-18T00:11:01.302Z,12.80
2024-01-18T00:13:28.867Z,11.30
2024-01-18T00:15:56.522Z,12.90
2024-01-18T00:18:24.294Z,10.30
2024-01-18T00:20:51.969Z,10.90
2024-01-18T00:23:19.607Z,10.90
2024-01-18T00:25:47.271Z,13.40
2024-01-18T00:28:14.824Z,10.30
2024-01-18T00:30:42.540Z,10.80
2024-01-18T00:33:10.385Z,14.00
2024-01-18T00:35:38.440Z,10.90
2024-01-18T00:38:05.987Z,10.60
2024-01-18T00:40:33.650Z,8.60
2024-01-18T00:43:01.304Z,10.70
2024-01-18T00:45:28.777Z,11.00
2024-01-18T00:47:56.359Z,8.70
2024-01-18T00:50:23.896Z,8.80
2024-01-18T00:52:51.536Z,10.90
2024-01-18T00:55:19.103Z,9.20
2024-01-18T00:57:46.770Z,10.00
2024-01-18T01:00:14.806Z,11.60
2024-01-18T01:02:42.604Z,9.40
2024-01-18T01:05:10.257Z,10.50
2024-01-18T01:07:37.941Z,10.40
2024-01-18T01:10:05.685Z,9.30
2024-01-18T01:12:33.507Z,8.50
2024-01-18T01:15:01.315Z,10.50
2024-01-18T01:17:29.000Z,8.80
2024-01-18T01:19:57.023Z,9.60
2024-01-18T01:22:24.807Z,8.80
2024-01-18T01:24:52.373Z,9.20
2024-01-18T01:27:20.073Z,8.30
2024-01-18T01:29:47.800Z,9.70
2024-01-18T01:32:15.466Z,8.40
2024-01-18T01:34:43.077Z,9.30
2024-01-18T01:37:10.797Z,9.10
2024-01-18T01:39:38.769Z,8.60
2024-01-18T01:42:06.537Z,7.20
2024-01-18T01:44:34.088Z,8.40
2024-01-18T01:47:01.936Z,8.00
2024-01-18T01:49:29.592Z,8.60
2024-01-18T01:51:57.479Z,7.00
2024-01-18T01:54:25.177Z,8.90
2024-01-18T01:56:52.936Z,8.00
2024-01-18T01:59:20.754Z,8.10
2024-01-18T02:01:48.719Z,8.40
2024-01-18T02:04:16.460Z,7.20
2024-01-18T02:06:44.268Z,9.00
2024-01-18T02:09:12.096Z,7.70
2024-01-18T02:11:39.775Z,8.50
2024-01-18T02:14:07.349Z,6.00
2024-01-18T02:16:35.207Z,8.60
2024-01-18T02:19:02.870Z,9.00
2024-01-18T02:21:31.122Z,8.40
2024-01-18T02:23:58.893Z,8.60
2024-01-18T02:26:26.563Z,6.30
2024-01-18T02:28:54.125Z,8.00
2024-01-18T02:31:21.698Z,8.10
2024-01-18T02:33:49.336Z,7.50
2024-01-18T02:36:17.033Z,7.90
2024-01-18T02:38:44.771Z,7.80
2024-01-18T02:41:12.742Z,7.10
2024-01-18T02:43:40.313Z,7.80
2024-01-18T02:46:07.981Z,7.80
2024-01-18T02:48:35.663Z,8.40
2024-01-18T02:51:03.296Z,8.00
2024-01-18T02:53:30.938Z,6.40
2024-01-18T02:55:58.627Z,7.30
2024-01-18T02:58:26.257Z,8.10
2024-01-18T03:00:54.016Z,9.00
2024-01-18T03:03:22.054Z,6.50
2024-01-18T03:05:49.891Z,6.90
2024-01-18T03:08:17.561Z,8.20
2024-01-18T03:10:45.294Z,7.70
2024-01-18T03:13:12.947Z,7.00
2024-01-18T03:15:40.719Z,8.20
2024-01-18T03:18:08.717Z,7.70
2024-01-18T03:20:36.653Z,7.80
2024-01-18T03:23:04.523Z,8.10
2024-01-18T03:25:32.058Z,7.40
2024-01-18T03:27:59.752Z,8.10
2024-01-18T03:30:27.337Z,6.10
2024-01-18T03:32:54.921Z,8.20
2024-01-18T03:35:25.196Z,6.40
2024-01-18T03:37:53.245Z,7.30
2024-01-18T03:40:20.922Z,7.90
2024-01-18T03:42:48.464Z,7.50
2024-01-18T03:45:16.170Z,7.10
2024-01-18T03:47:47.058Z,5.70
2024-01-18T03:50:15.967Z,8.50
2024-01-18T03:52:43.728Z,7.80
2024-01-18T03:55:11.301Z,9.00
2024-01-18T03:57:39.022Z,9.00
2024-01-18T04:00:06.996Z,8.40
2024-01-18T04:02:34.677Z,5.50
2024-01-18T04:05:02.462Z,9.20
2024-01-18T04:07:30.210Z,6.10
2024-01-18T04:09:57.883Z,8.90
2024-01-18T04:12:25.454Z,8.60
2024-01-18T04:14:53.192Z,6.60
2024-01-18T04:17:20.900Z,9.20
2024-01-18T04:19:49.007Z,10.90
2024-01-18T04:22:16.891Z,10.00
2024-01-18T04:24:44.485Z,10.00
2024-01-18T04:27:12.338Z,8.70
2024-01-18T04:29:40.397Z,9.10
2024-01-18T04:32:08.041Z,9.50
2024-01-18T04:34:35.617Z,23.60
2024-01-18T04:37:03.297Z,13.00
2024-01-18T04:39:30.981Z,14.00
2024-01-18T04:41:58.715Z,11.40
2024-01-18T04:44:26.562Z,35.60
2024-01-18T04:46:54.131Z,19.70
2024-01-18T04:49:22.126Z,11.10
2024-01-18T04:51:49.789Z,12.10
2024-01-18T04:54:17.477Z,12.00
2024-01-18T04:56:45.177Z,10.40
2024-01-18T04:59:12.739Z,10.60
2024-01-18T05:01:40.396Z,10.10
2024-01-18T05:04:08.201Z,12.10
2024-01-18T05:06:36.027Z,10.40
2024-01-18T05:09:04.036Z,9.90
2024-01-18T05:11:31.865Z,16.50
2024-01-18T05:13:59.414Z,17.30
2024-01-18T05:16:27.082Z,17.20
2024-01-18T05:18:54.700Z,22.40
2024-01-18T05:21:22.552Z,12.10
2024-01-18T05:23:50.416Z,9.20
2024-01-18T05:26:18.073Z,7.90
2024-01-18T05:28:45.893Z,10.70
2024-01-18T05:31:13.769Z,11.30
2024-01-18T05:33:41.443Z,12.10
2024-01-18T05:36:09.327Z,10.70
2024-01-18T05:38:40.516Z,11.50
2024-01-18T05:41:09.931Z,10.00
2024-01-18T05:43:37.501Z,9.20
2024-01-18T05:46:05.166Z,11.20
2024-01-18T05:48:32.746Z,10.50
2024-01-18T05:51:00.882Z,9.70
2024-01-18T05:53:28.559Z,9.90
2024-01-18T05:55:56.117Z,8.30
2024-01-18T05:58:23.670Z,8.80
2024-01-18T06:00:51.385Z,6.20
2024-01-18T06:03:19.108Z,9.50
2024-01-18T06:05:46.716Z,7.30
2024-01-18T06:08:14.323Z,9.50
2024-01-18T06:10:42.185Z,6.50
2024-01-18T06:13:09.756Z,9.90
2024-01-18T06:15:37.331Z,7.60
2024-01-18T06:18:05.070Z,8.10
2024-01-18T06:20:32.872Z,8.10
2024-01-18T06:23:00.491Z,8.80
2024-01-18T06:25:27.938Z,5.60
2024-01-18T06:27:55.499Z,8.00
2024-01-18T06:30:23.186Z,9.30
2024-01-18T06:32:50.966Z,9.60
2024-01-18T06:35:18.992Z,9.20
2024-01-18T06:37:46.655Z,7.40
2024-01-18T06:40:14.216Z,11.30
2024-01-18T06:42:41.823Z,9.80
2024-01-18T06:45:09.484Z,9.60
2024-01-18T06:47:37.340Z,7.70
2024-01-18T06:50:05.204Z,8.10
2024-01-18T06:52:32.827Z,9.00
2024-01-18T06:55:00.493Z,10.30
2024-01-18T06:57:28.210Z,8.00
2024-01-18T06:59:56.433Z,8.20
2024-01-18T07:02:24.200Z,9.70
2024-01-18T07:04:51.981Z,10.30
2024-01-18T07:07:19.618Z,10.70
2024-01-18T07:09:47.231Z,10.50
2024-01-18T07:12:14.964Z,9.70
2024-01-18T07:14:42.713Z,8.20
2024-01-18T07:17:10.265Z,9.30
2024-01-18T07:19:40.273Z,8.40
2024-01-18T07:22:08.345Z,10.20
2024-01-18T07:24:35.943Z,8.40
2024-01-18T07:27:03.527Z,7.20
2024-01-18T07:29:31.341Z,7.90
2024-01-18T07:31:58.895Z,9.20
2024-01-18T07:34:26.754Z,9.70
2024-01-18T07:36:54.872Z,8.50
2024-01-18T07:39:22.639Z,6.30
2024-01-18T07:41:50.259Z,6.30
2024-01-18T07:44:17.816Z,6.30
2024-01-18T07:46:45.395Z,7.30
2024-01-18T07:49:12.952Z,11.50
2024-01-18T07:51:40.572Z,7.60
2024-01-18T07:54:08.392Z,7.70
2024-01-18T07:56:36.118Z,7.70
2024-01-18T07:59:03.787Z,7.20
2024-01-18T08:01:34.835Z,6.10
2024-01-18T08:04:04.447Z,6.00
2024-01-18T08:06:32.425Z,6.60
2024-01-18T08:09:00.189Z,7.30
2024-01-18T08:11:27.866Z,8.20
2024-01-18T08:13:55.598Z,11.30
2024-01-18T08:16:23.241Z,8.40
2024-01-18T08:18:51.012Z,7.70
2024-01-18T08:21:18.745Z,7.60
2024-01-18T08:23:46.541Z,8.80
2024-01-18T08:26:14.093Z,8.90
2024-01-18T08:28:41.766Z,7.70
2024-01-18T08:31:09.417Z,8.40
2024-01-18T08:33:37.011Z,7.60
2024-01-18T08:36:05.104Z,8.80
2024-01-18T08:38:32.818Z,10.40
2024-01-18T08:41:00.372Z,11.00
2024-01-18T08:43:27.940Z,12.20
2024-01-18T08:45:55.700Z,13.40
2024-01-18T08:48:23.651Z,7.60
2024-01-18T08:50:52.798Z,12.20
2024-01-18T08:53:21.744Z,12.50
2024-01-18T08:55:49.728Z,14.80
2024-01-18T08:58:17.324Z,14.00
2024-01-18T09:00:45.032Z,13.00
2024-01-18T09:03:12.752Z,10.40
2024-01-18T09:05:40.369Z,12.80
2024-01-18T09:08:08.066Z,9.00
2024-01-18T09:10:35.934Z,12.30
2024-01-18T09:13:03.555Z,13.60
2024-01-18T09:15:31.041Z,13.80
2024-01-18T09:17:59.155Z,11.10
2024-01-18T09:20:26.893Z,21.20
2024-01-18T09:23:05.192Z,16.90
2024-01-18T09:25:40.003Z,21.20
2024-01-18T09:28:08.272Z,23.50
2024-01-18T09:30:36.018Z,18.10
2024-01-18T09:33:03.727Z,29.50
2024-01-18T09:35:31.402Z,19.60
2024-01-18T09:37:59.010Z,20.20
2024-01-18T09:40:26.772Z,17.50
2024-01-18T09:42:54.453Z,14.50
2024-01-18T09:45:22.119Z,16.70
2024-01-18T09:47:49.822Z,25.50
2024-01-18T09:50:17.581Z,19.50
2024-01-18T09:52:45.189Z,19.60
2024-01-18T09:55:12.845Z,16.90
2024-01-18T09:57:40.558Z,16.60
2024-01-18T10:00:09.744Z,18.70
2024-01-18T10:02:38.006Z,18.20
2024-01-18T10:05:06.074Z,15.10
2024-01-18T10:07:33.960Z,23.20
2024-01-18T10:10:01.792Z,19.90
2024-01-18T10:12:29.449Z,15.30
2024-01-18T10:14:57.006Z,14.40
2024-01-18T10:17:24.769Z,11.70
2024-01-18T10:19:52.795Z,9.70
2024-01-18T10:22:21.021Z,12.00
2024-01-18T10:24:48.887Z,9.90
2024-01-18T10:27:16.682Z,11.50
2024-01-18T10:29:44.520Z,11.70
2024-01-18T10:32:12.206Z,11.20
2024-01-18T10:34:39.915Z,13.90
2024-01-18T10:37:08.009Z,12.40
2024-01-18T10:39:35.626Z,12.80
2024-01-18T10:42:03.630Z,10.00
2024-01-18T10:44:31.204Z,13.20
2024-01-18T10:46:58.863Z,14.10
2024-01-18T10:49:26.427Z,11.40
2024-01-18T10:51:54.277Z,15.50
2024-01-18T10:54:30.066Z,16.70
2024-01-18T10:57:05.181Z,11.60
2024-01-18T10:59:32.740Z,16.10
2024-01-18T11:02:00.864Z,15.80
2024-01-18T11:04:28.702Z,17.10
2024-01-18T11:06:56.328Z,12.20
2024-01-18T11:09:24.000Z,12.90
2024-01-18T11:11:51.650Z,15.80
2024-01-18T11:14:19.419Z,14.40
2024-01-18T11:16:46.971Z,11.90
2024-01-18T11:19:14.708Z,12.10
2024-01-18T11:21:42.823Z,14.00
2024-01-18T11:24:10.652Z,10.60
2024-01-18T11:26:38.334Z,10.40
2024-01-18T11:29:06.139Z,10.90
2024-01-18T11:31:33.803Z,14.20
2024-01-18T11:34:01.481Z,13.90
2024-01-18T11:36:29.207Z,11.80
2024-01-18T11:38:56.951Z,14.40
2024-01-18T11:41:24.696Z,12.40
2024-01-18T11:43:52.880Z,14.50
2024-01-18T11:46:20.463Z,12.30
2024-01-18T11:48:48.190Z,12.70
2024-01-18T11:51:15.901Z,13.00
2024-01-18T11:53:43.428Z,15.60
2024-01-18T11:56:11.106Z,15.80
2024-01-18T11:58:38.659Z,13.60
2024-01-18T12:01:06.624Z,11.30
2024-01-18T12:03:34.414Z,13.00
2024-01-18T12:06:02.167Z,14.80
2024-01-18T12:08:29.798Z,12.60
2024-01-18T12:10:57.460Z,14.90
2024-01-18T12:13:25.028Z,15.40
2024-01-18T12:15:52.799Z,14.20
2024-01-18T12:18:20.525Z,14.30
2024-01-18T12:20:48.306Z,14.40
2024-01-18T12:23:15.887Z,11.90
2024-01-18T12:25:43.947Z,14.10
2024-01-18T12:28:11.504Z,14.00
2024-01-18T12:30:39.175Z,14.00
2024-01-18T12:33:06.864Z,14.60
2024-01-18T12:35:34.495Z,15.50
2024-01-18T12:38:02.050Z,13.00
2024-01-18T12:40:29.611Z,16.80
2024-01-18T12:42:57.381Z,13.60
2024-01-18T12:45:25.165Z,14.30
2024-01-18T12:47:52.824Z,16.20
2024-01-18T12:50:20.763Z,14.90
2024-01-18T12:52:48.535Z,11.80
2024-01-18T12:55:16.083Z,17.60
2024-01-18T12:57:46.467Z,17.50
2024-01-18T13:00:14.296Z,15.50
2024-01-18T13:02:42.035Z,14.80
2024-01-18T13:05:09.785Z,13.50
2024-01-18T13:07:37.612Z,16.80
2024-01-18T13:10:05.590Z,16.30
2024-01-18T13:12:33.339Z,18.80
2024-01-18T13:15:00.963Z,17.30
2024-01-18T13:17:28.658Z,18.80
2024-01-18T13:19:56.400Z,19.50
2024-01-18T13:22:24.057Z,17.70
2024-01-18T13:24:51.740Z,15.30
2024-01-18T13:27:19.295Z,19.80
2024-01-18T13:29:46.938Z,16.40
2024-01-18T13:32:14.798Z,17.40
2024-01-18T13:34:42.641Z,13.40
2024-01-18T13:37:12.986Z,17.60
2024-01-18T13:39:45.780Z,15.00
2024-01-18T13:42:13.323Z,17.00
2024-01-18T13:44:41.013Z,13.80
2024-01-18T13:47:08.537Z,15.00
2024-01-18T13:49:36.255Z,17.50
2024-01-18T13:52:04.503Z,19.70
2024-01-18T13:54:32.562Z,20.10
2024-01-18T13:57:00.235Z,19.60
2024-01-18T13:59:27.780Z,18.10
2024-01-18T14:01:55.394Z,15.60
2024-01-18T14:04:23.197Z,20.60
2024-01-18T14:06:50.823Z,19.30
2024-01-18T14:09:18.696Z,16.40
2024-01-18T14:11:46.700Z,18.30
2024-01-18T14:14:14.465Z,18.70
2024-01-18T14:16:42.019Z,14.90
2024-01-18T14:19:09.892Z,17.00
2024-01-18T14:21:37.663Z,20.00
2024-01-18T14:24:05.531Z,17.20
2024-01-18T14:26:33.116Z,18.00
2024-01-18T14:29:00.837Z,17.00
2024-01-18T14:31:28.409Z,16.40
2024-01-18T14:33:56.670Z,15.00
2024-01-18T14:36:24.335Z,16.60
2024-01-18T14:38:52.112Z,18.90
2024-01-18T14:41:19.667Z,15.80
2024-01-18T14:43:47.310Z,15.40
2024-01-18T14:46:14.894Z,16.30
2024-01-18T14:48:42.666Z,18.40
2024-01-18T14:51:10.511Z,19.70
2024-01-18T14:53:38.175Z,21.00
2024-01-18T14:56:05.727Z,20.80
2024-01-18T14:58:33.398Z,16.30
2024-01-18T15:01:01.112Z,13.50
2024-01-18T15:03:28.867Z,11.20
2024-01-18T15:05:56.743Z,20.80
2024-01-18T15:08:24.450Z,14.70
2024-01-18T15:10:52.211Z,16.00
2024-01-18T15:13:19.760Z,18.50
2024-01-18T15:15:47.426Z,15.60
2024-01-18T15:18:15.052Z,17.10
2024-01-18T15:20:43.117Z,14.30
2024-01-18T15:23:10.922Z,11.90
2024-01-18T15:25:38.381Z,18.20
2024-01-18T15:28:05.981Z,10.20
2024-01-18T15:30:33.868Z,11.70
2024-01-18T15:33:02.034Z,13.60
2024-01-18T15:35:29.739Z,19.20
2024-01-18T15:37:57.306Z,16.40
2024-01-18T15:40:24.962Z,19.40
2024-01-18T15:42:52.583Z,16.60
2024-01-18T15:45:20.272Z,19.20
2024-01-18T15:47:47.965Z,17.90
2024-01-18T15:50:15.601Z,18.60
2024-01-18T15:52:45.262Z,14.80
2024-01-18T15:55:13.248Z,23.60
2024-01-18T15:57:41.050Z,20.40
2024-01-18T16:00:09.067Z,20.60
2024-01-18T16:02:36.779Z,23.30
2024-01-18T16:05:07.330Z,20.20
2024-01-18T16:07:35.799Z,20.50
2024-01-18T16:10:03.477Z,24.30
2024-01-18T16:12:31.173Z,26.60
2024-01-18T16:14:59.098Z,20.20
2024-01-18T16:17:26.887Z,22.20
2024-01-18T16:19:54.950Z,27.00
2024-01-18T16:22:22.586Z,22.80
2024-01-18T16:24:50.265Z,18.70
2024-01-18T16:27:18.046Z,19.20
2024-01-18T16:29:54.659Z,13.50
2024-01-18T16:32:33.153Z,15.30
2024-01-18T16:35:03.336Z,13.80
2024-01-18T16:37:32.405Z,19.00
2024-01-18T16:40:00.312Z,18.30
2024-01-18T16:42:28.117Z,19.00
2024-01-18T16:44:55.897Z,21.60
2024-01-18T16:47:23.455Z,21.30
2024-01-18T16:49:51.180Z,21.40
2024-01-18T16:52:18.876Z,15.90
2024-01-18T16:54:46.671Z,21.00
2024-01-18T16:57:19.246Z,20.80
2024-01-18T16:59:55.691Z,27.70
2024-01-18T17:02:23.407Z,26.20
2024-01-18T17:04:51.238Z,24.40
2024-01-18T17:07:19.137Z,22.10
2024-01-18T17:09:46.846Z,21.90
2024-01-18T17:12:14.499Z,24.00
2024-01-18T17:14:42.078Z,22.80
2024-01-18T17:17:10.475Z,21.60
2024-01-18T17:19:38.130Z,25.30
2024-01-18T17:22:05.779Z,20.80
2024-01-18T17:24:33.434Z,20.10
2024-01-18T17:27:01.156Z,18.50
2024-01-18T17:29:28.782Z,18.40
2024-01-18T17:31:56.353Z,15.20
2024-01-18T17:34:24.042Z,16.10
2024-01-18T17:36:51.739Z,17.70
2024-01-18T17:39:19.391Z,13.30
2024-01-18T17:41:47.028Z,15.70
2024-01-18T17:44:14.743Z,15.80
2024-01-18T17:46:44.497Z,20.10
2024-01-18T17:49:13.922Z,14.90
2024-01-18T17:51:41.694Z,15.50
2024-01-18T17:54:09.258Z,15.80
2024-01-18T17:56:37.013Z,17.80
2024-01-18T17:59:04.990Z,11.30
2024-01-18T18:01:32.642Z,16.90
2024-01-18T18:04:00.210Z,12.10
2024-01-18T18:06:27.930Z,12.00
2024-01-18T18:08:55.670Z,13.30
2024-01-18T18:11:23.341Z,17.40
2024-01-18T18:13:50.972Z,16.10
2024-01-18T18:16:18.621Z,16.40
2024-01-18T18:18:46.563Z,13.40
2024-01-18T18:21:14.246Z,15.80
2024-01-18T18:23:41.821Z,13.30
2024-01-18T18:26:10.206Z,14.10
2024-01-18T18:28:38.964Z,16.40
2024-01-18T18:31:06.779Z,21.30
2024-01-18T18:33:34.486Z,16.90
2024-01-18T18:36:02.333Z,13.30
2024-01-18T18:38:33.114Z,16.00
2024-01-18T18:43:30.912Z,12.90
2024-01-18T18:45:58.969Z,13.80
2024-01-18T18:48:26.649Z,13.80
2024-01-18T18:50:54.501Z,12.80
2024-01-18T18:53:22.326Z,19.10
2024-01-18T18:55:49.997Z,22.50
2024-01-18T18:58:17.560Z,20.90
2024-01-18T19:00:45.445Z,11.00
2024-01-18T19:03:13.086Z,22.40
2024-01-18T19:05:40.829Z,20.90
2024-01-18T19:08:08.742Z,21.20
2024-01-18T19:10:36.384Z,25.50
2024-01-18T19:13:04.049Z,21.40
2024-01-18T19:15:31.623Z,16.80
2024-01-18T19:17:59.409Z,20.10
2024-01-18T19:20:27.266Z,19.50
2024-01-18T19:22:55.009Z,21.00
2024-01-18T19:25:23.063Z,18.40
2024-01-18T19:27:50.729Z,27.70
2024-01-18T19:30:18.292Z,22.80
2024-01-18T19:32:46.099Z,23.30
2024-01-18T19:35:13.934Z,20.40
2024-01-18T19:37:41.469Z,26.00
2024-01-18T19:40:09.037Z,16.50
2024-01-18T19:42:36.799Z,22.90
2024-01-18T19:45:04.660Z,22.80
2024-01-18T19:47:32.425Z,23.20
2024-01-18T19:50:00.205Z,21.90
2024-01-18T19:52:44.038Z,21.90
2024-01-18T19:55:11.593Z,20.30
2024-01-18T19:57:42.102Z,21.40
2024-01-18T20:00:11.220Z,22.20
2024-01-18T20:02:38.799Z,22.90
2024-01-18T20:05:06.227Z,17.60
2024-01-18T20:07:33.790Z,19.20
2024-01-18T20:10:01.666Z,22.00
2024-01-18T20:12:29.222Z,20.20
2024-01-18T20:14:56.990Z,21.50
2024-01-18T20:17:24.794Z,24.40
2024-01-18T20:19:52.455Z,25.00
2024-01-18T20:22:20.268Z,22.20
2024-01-18T20:24:47.945Z,19.90
2024-01-18T20:27:15.825Z,16.00
2024-01-18T20:29:44.122Z,19.00
2024-01-18T20:32:11.893Z,11.80
2024-01-18T20:34:40.451Z,18.60
2024-01-18T20:37:09.104Z,20.60
2024-01-18T20:39:36.772Z,21.40
2024-01-18T20:42:04.628Z,17.20
2024-01-18T20:44:32.322Z,20.40
2024-01-18T20:47:00.075Z,14.00
2024-01-18T20:49:27.757Z,18.80
2024-01-18T20:51:55.490Z,16.10
2024-01-18T20:54:23.045Z,23.30
2024-01-18T20:56:50.712Z,16.30
2024-01-18T20:59:18.413Z,19.60
2024-01-18T21:01:46.025Z,17.30
2024-01-18T21:04:13.713Z,17.60
2024-01-18T21:06:41.469Z,12.70
2024-01-18T21:09:09.210Z,15.10
2024-01-18T21:11:37.349Z,16.70
2024-01-18T21:14:04.957Z,19.90
2024-01-18T21:16:32.615Z,15.20
2024-01-18T21:19:00.363Z,19.70
2024-01-18T21:21:28.246Z,18.20
2024-01-18T21:23:56.023Z,15.30
2024-01-18T21:26:24.191Z,17.50
2024-01-18T21:28:51.732Z,15.20
2024-01-18T21:31:19.398Z,16.10
2024-01-18T21:33:46.980Z,14.40
2024-01-18T21:36:14.661Z,13.10
2024-01-18T21:38:42.329Z,15.70
2024-01-18T21:41:10.149Z,12.90
2024-01-18T21:43:38.018Z,13.60
2024-01-18T21:46:06.278Z,14.60
2024-01-18T21:48:34.222Z,17.80
2024-01-18T21:51:02.282Z,13.40
2024-01-18T21:53:30.110Z,20.50
2024-01-18T21:55:57.963Z,17.20
2024-01-18T21:58:25.716Z,18.80
2024-01-18T22:00:53.701Z,14.00
2024-01-18T22:03:21.550Z,15.80
2024-01-18T22:05:49.556Z,12.70
2024-01-18T22:08:17.323Z,13.60
2024-01-18T22:10:44.953Z,14.10
2024-01-18T22:13:12.609Z,11.90
2024-01-18T22:15:40.061Z,12.40
2024-01-18T22:18:07.738Z,15.70
2024-01-18T22:20:35.546Z,12.30
2024-01-18T22:23:03.252Z,16.00
2024-01-18T22:25:30.914Z,15.00
2024-01-18T22:27:58.480Z,17.00
2024-01-18T22:30:26.131Z,19.90
2024-01-18T22:32:54.089Z,21.00
2024-01-18T22:35:21.944Z,21.10
2024-01-18T22:37:49.639Z,16.20
2024-01-18T22:40:17.394Z,19.80
2024-01-18T22:42:45.084Z,22.60
2024-01-18T22:45:12.722Z,20.00
2024-01-18T22:47:40.342Z,22.20
2024-01-18T22:50:08.431Z,17.40
2024-01-18T22:52:36.434Z,16.50
2024-01-18T22:55:04.087Z,17.70
2024-01-18T22:57:31.742Z,19.10
2024-01-18T22:59:59.307Z,18.60
2024-01-18T23:02:26.958Z,15.10
2024-01-18T23:04:54.520Z,13.70
2024-01-18T23:07:22.189Z,16.90
2024-01-18T23:09:49.742Z,17.30
2024-01-18T23:12:17.404Z,15.90
2024-01-18T23:14:45.512Z,14.80
2024-01-18T23:17:13.159Z,13.80
2024-01-18T23:19:40.782Z,13.20
2024-01-18T23:22:08.485Z,15.50
2024-01-18T23:24:36.120Z,15.10
2024-01-18T23:27:03.666Z,15.20
2024-01-18T23:29:31.468Z,13.80
2024-01-18T23:31:59.099Z,15.20
2024-01-18T23:34:26.658Z,11.00
2024-01-18T23:36:54.315Z,17.80
2024-01-18T23:39:21.978Z,12.80
2024-01-18T23:41:49.649Z,14.10
2024-01-18T23:44:17.415Z,16.40
2024-01-18T23:46:44.956Z,15.90
2024-01-18T23:49:12.440Z,15.40
2024-01-18T23:51:40.315Z,14.60
2024-01-18T23:54:08.067Z,15.30
2024-01-18T23:56:35.701Z,11.80
2024-01-18T23:59:03.386Z,14.80
